createdAt,value
2019-02-24T00:01:10.649Z,0.00
2019-02-24T00:02:21.790Z,0.00
2019-02-24T00:03:32.925Z,0.00
2019-02-24T00:04:44.075Z,0.00
2019-02-24T00:05:55.214Z,0.00
2019-02-24T00:07:06.346Z,0.00
2019-02-24T00:08:17.486Z,0.00
2019-02-24T00:09:28.636Z,0.00
2019-02-24T00:10:39.787Z,0.00
2019-02-24T00:11:50.920Z,0.00
2019-02-24T00:13:02.066Z,0.00
2019-02-24T00:14:13.210Z,0.00
2019-02-24T00:15:24.348Z,0.00
2019-02-24T00:16:35.492Z,0.00
2019-02-24T00:17:46.634Z,0.00
2019-02-24T00:18:57.786Z,0.00
2019-02-24T00:20:08.938Z,0.00
2019-02-24T00:21:20.073Z,0.00
2019-02-24T00:22:32.204Z,0.00
2019-02-24T00:23:43.341Z,0.00
2019-02-24T00:24:54.002Z,0.00
2019-02-24T00:26:05.145Z,0.00
2019-02-24T00:27:16.294Z,0.00
2019-02-24T00:28:27.448Z,0.00
2019-02-24T00:29:38.640Z,0.00
2019-02-24T00:30:49.748Z,0.00
2019-02-24T00:32:00.867Z,0.00
2019-02-24T00:33:12.015Z,0.00
2019-02-24T00:34:23.166Z,0.00
2019-02-24T00:35:34.314Z,0.00
2019-02-24T00:36:45.451Z,0.00
2019-02-24T00:37:56.622Z,0.00
2019-02-24T00:39:07.766Z,0.00
2019-02-24T00:40:18.922Z,0.00
2019-02-24T00:41:30.056Z,0.00
2019-02-24T00:42:41.190Z,0.00
2019-02-24T00:43:51.843Z,0.00
2019-02-24T00:45:03.976Z,0.00
2019-02-24T00:46:15.119Z,0.00
2019-02-24T00:47:25.764Z,0.00
2019-02-24T00:48:36.913Z,0.00
2019-02-24T00:49:47.586Z,0.00
2019-02-24T00:50:58.702Z,0.00
2019-02-24T00:52:09.840Z,0.00
2019-02-24T00:53:20.993Z,0.00
2019-02-24T00:54:32.122Z,0.00
2019-02-24T00:55:43.267Z,0.00
2019-02-24T00:56:54.413Z,0.00
2019-02-24T00:58:05.556Z,0.00
2019-02-24T00:59:16.697Z,0.00
2019-02-24T01:00:27.346Z,0.00
2019-02-24T01:01:38.615Z,0.00
2019-02-24T01:02:49.755Z,0.00
2019-02-24T01:04:00.891Z,0.00
2019-02-24T01:05:11.536Z,0.00
2019-02-24T01:06:22.170Z,0.00
2019-02-24T01:07:33.302Z,0.00
2019-02-24T01:08:44.440Z,0.00
2019-02-24T01:09:55.087Z,0.00
2019-02-24T01:11:06.226Z,0.00
2019-02-24T01:12:17.377Z,0.00
2019-02-24T01:13:28.619Z,0.00
2019-02-24T01:14:39.264Z,0.00
2019-02-24T01:15:50.400Z,0.00
2019-02-24T01:17:01.530Z,0.00
2019-02-24T01:18:12.683Z,0.00
2019-02-24T01:19:23.812Z,0.00
2019-02-24T01:20:34.955Z,0.00
2019-02-24T01:21:46.082Z,0.00
2019-02-24T01:22:57.209Z,0.00
2019-02-24T01:24:07.841Z,0.00
2019-02-24T01:25:18.622Z,0.00
2019-02-24T01:26:29.755Z,0.00
2019-02-24T01:27:40.396Z,0.00
2019-02-24T01:28:51.527Z,0.00
2019-02-24T01:30:02.686Z,0.00
2019-02-24T01:31:13.816Z,0.00
2019-02-24T01:32:24.949Z,0.00
2019-02-24T01:33:36.075Z,0.00
2019-02-24T01:34:47.215Z,0.00
2019-02-24T01:35:57.854Z,0.00
2019-02-24T01:37:08.978Z,0.00
2019-02-24T01:38:20.122Z,0.00
2019-02-24T01:39:30.762Z,0.00
2019-02-24T01:40:41.917Z,0.00
2019-02-24T01:41:53.044Z,0.00
2019-02-24T01:43:04.170Z,0.00
2019-02-24T01:44:15.305Z,0.00
2019-02-24T01:45:26.435Z,0.00
2019-02-24T01:46:37.577Z,0.00
2019-02-24T01:47:48.712Z,0.00
2019-02-24T01:48:59.852Z,0.00
2019-02-24T01:50:10.991Z,0.00
2019-02-24T01:51:22.121Z,0.00
2019-02-24T01:52:33.245Z,0.00
2019-02-24T01:53:44.379Z,0.00
2019-02-24T01:54:55.019Z,0.00
2019-02-24T01:56:06.158Z,0.00
2019-02-24T01:57:17.295Z,0.00
2019-02-24T01:58:34.800Z,0.00
2019-02-24T01:59:38.561Z,0.00
2019-02-24T02:00:49.687Z,0.00
2019-02-24T02:02:00.826Z,0.00
2019-02-24T02:03:11.958Z,0.00
2019-02-24T02:04:23.081Z,0.00
2019-02-24T02:05:33.720Z,0.00
2019-02-24T02:06:44.358Z,0.00
2019-02-24T02:07:55.501Z,0.00
2019-02-24T02:09:07.579Z,0.00
2019-02-24T02:10:18.222Z,0.00
2019-02-24T02:11:29.367Z,0.00
2019-02-24T02:12:40.612Z,0.00
2019-02-24T02:13:51.735Z,0.00
2019-02-24T02:15:02.874Z,0.00
2019-02-24T02:16:13.998Z,0.00
2019-02-24T02:17:25.138Z,0.00
2019-02-24T02:18:36.280Z,0.00
2019-02-24T02:19:47.414Z,0.00
2019-02-24T02:20:58.619Z,0.00
2019-02-24T02:22:09.754Z,0.00
2019-02-24T02:23:20.877Z,0.00
2019-02-24T02:24:31.523Z,0.00
2019-02-24T02:25:42.678Z,0.00
2019-02-24T02:26:53.809Z,0.00
2019-02-24T02:28:04.935Z,0.00
2019-02-24T02:29:15.568Z,0.00
2019-02-24T02:30:26.705Z,0.00
2019-02-24T02:31:37.822Z,0.00
2019-02-24T02:32:48.958Z,0.00
2019-02-24T02:34:00.090Z,0.00
2019-02-24T02:35:11.214Z,0.00
2019-02-24T02:36:22.344Z,0.00
2019-02-24T02:37:32.978Z,0.00
2019-02-24T02:38:44.103Z,0.00
2019-02-24T02:39:55.234Z,0.00
2019-02-24T02:41:06.368Z,0.00
2019-02-24T02:42:17.010Z,0.00
2019-02-24T02:43:28.146Z,0.00
2019-02-24T02:44:38.779Z,0.00
2019-02-24T02:45:49.411Z,0.00
2019-02-24T02:47:00.611Z,0.00
2019-02-24T02:48:11.735Z,0.00
2019-02-24T02:49:22.370Z,0.00
2019-02-24T02:50:33.011Z,0.00
2019-02-24T02:51:44.148Z,0.00
2019-02-24T02:52:55.265Z,0.00
2019-02-24T02:54:06.384Z,0.00
2019-02-24T02:55:17.505Z,0.00
2019-02-24T02:56:28.628Z,0.00
2019-02-24T02:57:40.761Z,0.00
2019-02-24T02:58:54.226Z,0.00
2019-02-24T03:00:02.614Z,0.00
2019-02-24T03:01:13.750Z,0.00
2019-02-24T03:02:24.902Z,0.00
2019-02-24T03:03:35.028Z,0.00
2019-02-24T03:04:46.147Z,0.00
2019-02-24T03:05:57.265Z,0.00
2019-02-24T03:07:07.892Z,0.00
2019-02-24T03:08:19.029Z,0.00
2019-02-24T03:09:30.154Z,0.00
2019-02-24T03:10:41.272Z,0.00
2019-02-24T03:11:52.397Z,0.00
2019-02-24T03:13:03.037Z,0.00
2019-02-24T03:14:14.169Z,0.00
2019-02-24T03:15:24.793Z,0.00
2019-02-24T03:16:35.930Z,0.00
2019-02-24T03:17:47.057Z,0.00
2019-02-24T03:18:58.191Z,0.00
2019-02-24T03:20:09.310Z,0.00
2019-02-24T03:21:19.957Z,0.00
2019-02-24T03:22:31.070Z,0.00
2019-02-24T03:23:42.699Z,0.00
2019-02-24T03:24:53.812Z,0.00
2019-02-24T03:26:04.923Z,0.00
2019-02-24T03:27:16.050Z,0.00
2019-02-24T03:28:27.165Z,0.00
2019-02-24T03:29:38.797Z,0.00
2019-02-24T03:30:49.910Z,0.00
2019-02-24T03:32:00.543Z,0.00
2019-02-24T03:33:11.662Z,0.00
2019-02-24T03:34:22.783Z,0.00
2019-02-24T03:35:33.412Z,0.00
2019-02-24T03:36:44.619Z,0.00
2019-02-24T03:37:55.249Z,0.00
2019-02-24T03:39:06.373Z,0.00
2019-02-24T03:40:17.516Z,0.00
2019-02-24T03:41:28.145Z,0.00
2019-02-24T03:42:38.779Z,0.00
2019-02-24T03:43:49.905Z,0.00
2019-02-24T03:45:01.019Z,0.00
2019-02-24T03:46:12.132Z,0.00
2019-02-24T03:47:23.256Z,0.00
2019-02-24T03:48:33.879Z,0.00
2019-02-24T03:49:45.011Z,0.00
2019-02-24T03:50:56.125Z,0.00
2019-02-24T03:52:07.236Z,0.00
2019-02-24T03:53:18.358Z,0.00
2019-02-24T03:54:29.478Z,0.00
2019-02-24T03:55:40.625Z,0.00
2019-02-24T03:56:51.743Z,0.00
2019-02-24T03:58:02.858Z,0.00
2019-02-24T03:59:15.264Z,0.00
2019-02-24T04:00:25.101Z,0.00
2019-02-24T04:01:36.217Z,0.00
2019-02-24T04:02:47.361Z,0.00
2019-02-24T04:03:58.616Z,0.00
2019-02-24T04:05:09.438Z,0.00
2019-02-24T04:06:20.069Z,0.00
2019-02-24T04:07:31.191Z,0.00
2019-02-24T04:08:41.813Z,0.00
2019-02-24T04:09:52.944Z,0.00
2019-02-24T04:11:04.069Z,0.00
2019-02-24T04:12:15.180Z,0.00
2019-02-24T04:13:26.304Z,0.00
2019-02-24T04:14:37.423Z,0.00
2019-02-24T04:15:48.629Z,0.00
2019-02-24T04:16:59.755Z,0.00
2019-02-24T04:18:10.372Z,0.00
2019-02-24T04:19:21.494Z,0.00
2019-02-24T04:20:32.137Z,0.00
2019-02-24T04:21:43.258Z,0.00
2019-02-24T04:22:54.368Z,0.00
2019-02-24T04:24:05.491Z,0.00
2019-02-24T04:25:16.612Z,0.00
2019-02-24T04:26:27.739Z,0.00
2019-02-24T04:27:38.357Z,0.00
2019-02-24T04:28:49.479Z,0.00
2019-02-24T04:30:00.622Z,0.00
2019-02-24T04:31:11.748Z,0.00
2019-02-24T04:32:22.869Z,0.00
2019-02-24T04:33:33.982Z,0.00
2019-02-24T04:34:44.607Z,0.00
2019-02-24T04:35:55.728Z,0.00
2019-02-24T04:37:06.349Z,0.00
2019-02-24T04:38:16.977Z,0.00
2019-02-24T04:39:28.086Z,0.00
2019-02-24T04:40:39.207Z,0.00
2019-02-24T04:41:50.332Z,0.00
2019-02-24T04:43:01.449Z,0.00
2019-02-24T04:44:12.610Z,0.00
2019-02-24T04:45:23.732Z,0.00
2019-02-24T04:46:34.861Z,0.00
2019-02-24T04:47:45.980Z,0.00
2019-02-24T04:48:56.599Z,0.00
2019-02-24T04:50:07.706Z,0.00
2019-02-24T04:51:18.842Z,0.00
2019-02-24T04:52:29.950Z,0.00
2019-02-24T04:53:41.071Z,0.00
2019-02-24T04:54:52.194Z,0.00
2019-02-24T04:56:03.308Z,0.00
2019-02-24T04:57:13.934Z,0.00
2019-02-24T04:58:25.046Z,0.00
2019-02-24T04:59:37.160Z,0.00
2019-02-24T05:00:48.290Z,0.00
2019-02-24T05:01:59.415Z,0.00
2019-02-24T05:03:10.610Z,0.00
2019-02-24T05:04:21.721Z,0.00
2019-02-24T05:05:32.842Z,0.00
2019-02-24T05:06:43.951Z,0.00
2019-02-24T05:07:55.066Z,0.00
2019-02-24T05:09:05.692Z,0.00
2019-02-24T05:10:16.820Z,0.00
2019-02-24T05:11:27.922Z,0.00
2019-02-24T05:12:39.049Z,0.00
2019-02-24T05:13:50.163Z,0.00
2019-02-24T05:15:01.285Z,0.00
2019-02-24T05:16:12.404Z,0.00
2019-02-24T05:17:23.038Z,0.00
2019-02-24T05:18:34.156Z,0.00
2019-02-24T05:19:45.271Z,0.00
2019-02-24T05:20:57.380Z,0.00
2019-02-24T05:22:08.616Z,0.00
2019-02-24T05:23:19.740Z,0.00
2019-02-24T05:24:30.850Z,0.00
2019-02-24T05:25:41.974Z,0.00
2019-02-24T05:26:53.083Z,0.00
2019-02-24T05:28:04.199Z,0.00
2019-02-24T05:29:15.321Z,0.00
2019-02-24T05:30:26.427Z,0.00
2019-02-24T05:31:37.544Z,0.00
2019-02-24T05:32:48.658Z,0.00
2019-02-24T05:33:59.292Z,0.00
2019-02-24T05:35:10.408Z,0.00
2019-02-24T05:36:21.523Z,0.00
2019-02-24T05:37:32.143Z,0.00
2019-02-24T05:38:43.263Z,0.00
2019-02-24T05:39:54.367Z,0.00
2019-02-24T05:41:05.490Z,0.00
2019-02-24T05:42:16.618Z,0.00
2019-02-24T05:43:27.723Z,0.00
2019-02-24T05:44:38.344Z,0.00
2019-02-24T05:45:49.451Z,0.00
2019-02-24T05:47:00.613Z,0.00
2019-02-24T05:48:11.745Z,0.00
2019-02-24T05:49:22.859Z,0.00
2019-02-24T05:50:33.493Z,0.00
2019-02-24T05:51:44.615Z,0.00
2019-02-24T05:52:55.236Z,0.00
2019-02-24T05:54:06.366Z,0.00
2019-02-24T05:55:17.463Z,0.00
2019-02-24T05:56:28.628Z,0.00
2019-02-24T05:57:39.718Z,0.00
2019-02-24T05:58:50.839Z,0.00
2019-02-24T06:00:01.479Z,0.00
2019-02-24T06:01:12.583Z,0.00
2019-02-24T06:02:23.711Z,0.00
2019-02-24T06:03:35.824Z,0.00
2019-02-24T06:04:46.929Z,0.00
2019-02-24T06:05:58.044Z,0.00
2019-02-24T06:07:08.666Z,0.00
2019-02-24T06:08:19.780Z,0.00
2019-02-24T06:09:30.891Z,0.00
2019-02-24T06:10:42.014Z,0.00
2019-02-24T06:11:52.618Z,0.00
2019-02-24T06:13:03.718Z,0.00
2019-02-24T06:14:14.834Z,0.00
2019-02-24T06:15:25.441Z,0.00
2019-02-24T06:16:36.615Z,0.00
2019-02-24T06:17:47.731Z,0.00
2019-02-24T06:18:58.854Z,0.00
2019-02-24T06:20:09.957Z,0.00
2019-02-24T06:21:21.073Z,5.63
2019-02-24T06:22:31.685Z,5.63
2019-02-24T06:23:42.796Z,5.63
2019-02-24T06:24:53.907Z,5.63
2019-02-24T06:26:05.014Z,5.63
2019-02-24T06:27:16.128Z,5.63
2019-02-24T06:28:27.236Z,5.63
2019-02-24T06:29:38.360Z,5.63
2019-02-24T06:30:49.477Z,11.25
2019-02-24T06:32:00.613Z,11.25
2019-02-24T06:33:11.719Z,11.25
2019-02-24T06:34:22.826Z,11.25
2019-02-24T06:35:35.961Z,11.25
2019-02-24T06:36:45.556Z,11.25
2019-02-24T06:37:56.167Z,16.88
2019-02-24T06:39:07.282Z,16.88
2019-02-24T06:40:18.403Z,16.88
2019-02-24T06:41:29.518Z,16.88
2019-02-24T06:42:40.138Z,16.88
2019-02-24T06:43:50.758Z,16.88
2019-02-24T06:45:01.872Z,16.88
2019-02-24T06:46:12.989Z,16.88
2019-02-24T06:47:23.614Z,22.50
2019-02-24T06:48:34.725Z,22.50
2019-02-24T06:49:45.340Z,22.50
2019-02-24T06:50:55.957Z,22.50
2019-02-24T06:52:07.066Z,22.50
2019-02-24T06:53:18.183Z,22.50
2019-02-24T06:54:28.801Z,22.50
2019-02-24T06:55:39.422Z,22.50
2019-02-24T06:56:50.040Z,28.13
2019-02-24T06:58:00.664Z,28.13
2019-02-24T06:59:11.784Z,28.13
2019-02-24T07:00:22.907Z,28.13
2019-02-24T07:01:34.008Z,28.13
2019-02-24T07:02:45.129Z,28.13
2019-02-24T07:03:56.243Z,28.13
2019-02-24T07:05:07.357Z,28.13
2019-02-24T07:06:17.984Z,28.13
2019-02-24T07:07:28.614Z,28.13
2019-02-24T07:08:39.242Z,28.13
2019-02-24T07:09:50.343Z,33.75
2019-02-24T07:11:00.978Z,33.75
2019-02-24T07:12:12.086Z,33.75
2019-02-24T07:13:23.193Z,33.75
2019-02-24T07:14:33.813Z,33.75
2019-02-24T07:15:44.944Z,33.75
2019-02-24T07:16:56.064Z,33.75
2019-02-24T07:18:07.236Z,33.75
2019-02-24T07:19:18.295Z,33.75
2019-02-24T07:20:30.426Z,33.75
2019-02-24T07:21:41.050Z,33.75
2019-02-24T07:22:52.177Z,33.75
2019-02-24T07:24:03.296Z,33.75
2019-02-24T07:25:14.411Z,39.38
2019-02-24T07:26:25.034Z,39.38
2019-02-24T07:27:36.153Z,39.38
2019-02-24T07:28:46.774Z,39.38
2019-02-24T07:29:57.884Z,39.38
2019-02-24T07:31:09.004Z,39.38
2019-02-24T07:32:20.147Z,39.38
2019-02-24T07:33:30.768Z,39.38
2019-02-24T07:34:41.893Z,39.38
2019-02-24T07:35:53.005Z,39.38
2019-02-24T07:37:12.573Z,39.38
2019-02-24T07:38:14.760Z,39.38
2019-02-24T07:39:25.879Z,39.38
2019-02-24T07:40:37.003Z,39.38
2019-02-24T07:41:48.114Z,39.38
2019-02-24T07:42:58.742Z,39.38
2019-02-24T07:44:09.863Z,45.00
2019-02-24T07:45:20.994Z,45.00
2019-02-24T07:46:32.113Z,45.00
2019-02-24T07:47:43.240Z,45.00
2019-02-24T07:48:53.860Z,45.00
2019-02-24T07:50:04.986Z,45.00
2019-02-24T07:51:16.114Z,45.00
2019-02-24T07:52:27.233Z,45.00
2019-02-24T07:53:38.350Z,45.00
2019-02-24T07:54:49.468Z,45.00
2019-02-24T07:56:00.616Z,45.00
2019-02-24T07:57:11.247Z,45.00
2019-02-24T07:58:22.389Z,45.00
2019-02-24T07:59:33.029Z,45.00
2019-02-24T08:00:44.155Z,45.00
2019-02-24T08:01:54.784Z,50.63
2019-02-24T08:03:05.908Z,50.63
2019-02-24T08:04:17.025Z,50.63
2019-02-24T08:05:28.145Z,50.63
2019-02-24T08:06:39.263Z,50.63
2019-02-24T08:07:49.913Z,50.63
2019-02-24T08:09:01.030Z,50.63
2019-02-24T08:10:12.156Z,50.63
2019-02-24T08:11:22.781Z,50.63
2019-02-24T08:12:33.896Z,50.63
2019-02-24T08:13:45.032Z,50.63
2019-02-24T08:14:56.150Z,50.63
2019-02-24T08:16:07.282Z,50.63
2019-02-24T08:17:18.417Z,50.63
2019-02-24T08:18:29.545Z,56.25
2019-02-24T08:19:40.683Z,56.25
2019-02-24T08:20:51.328Z,56.25
2019-02-24T08:22:02.473Z,56.25
2019-02-24T08:23:13.576Z,56.25
2019-02-24T08:24:24.214Z,56.25
2019-02-24T08:25:35.348Z,56.25
2019-02-24T08:26:46.611Z,56.25
2019-02-24T08:27:57.745Z,56.25
2019-02-24T08:29:08.876Z,56.25
2019-02-24T08:30:19.511Z,56.25
2019-02-24T08:31:30.638Z,56.25
2019-02-24T08:32:41.770Z,56.25
2019-02-24T08:33:52.897Z,56.25
2019-02-24T08:35:04.333Z,56.25
2019-02-24T08:36:14.975Z,61.88
2019-02-24T08:37:26.107Z,61.88
2019-02-24T08:38:37.243Z,61.88
2019-02-24T08:39:48.382Z,61.88
2019-02-24T08:40:59.511Z,61.88
2019-02-24T08:42:10.654Z,61.88
2019-02-24T08:43:21.797Z,61.88
2019-02-24T08:44:32.956Z,61.88
2019-02-24T08:45:44.078Z,61.88
2019-02-24T08:46:55.218Z,61.88
2019-02-24T08:48:06.359Z,61.88
2019-02-24T08:49:17.508Z,61.88
2019-02-24T08:50:28.638Z,61.88
2019-02-24T08:51:39.784Z,61.88
2019-02-24T08:52:50.943Z,61.88
2019-02-24T08:54:01.586Z,61.88
2019-02-24T08:55:12.243Z,61.88
2019-02-24T08:56:23.381Z,61.88
2019-02-24T08:57:34.624Z,61.88
2019-02-24T08:58:45.768Z,67.50
2019-02-24T08:59:56.921Z,67.50
2019-02-24T09:01:08.072Z,67.50
2019-02-24T09:02:19.209Z,67.50
2019-02-24T09:03:30.344Z,61.88
2019-02-24T09:04:40.997Z,67.50
2019-02-24T09:05:52.147Z,67.50
2019-02-24T09:07:02.806Z,67.50
2019-02-24T09:08:13.459Z,67.50
2019-02-24T09:09:24.613Z,67.50
2019-02-24T09:10:35.759Z,67.50
2019-02-24T09:11:46.899Z,67.50
2019-02-24T09:12:57.548Z,67.50
2019-02-24T09:14:08.697Z,67.50
2019-02-24T09:15:19.861Z,67.50
2019-02-24T09:16:30.996Z,67.50
2019-02-24T09:17:42.150Z,67.50
2019-02-24T09:18:53.305Z,67.50
2019-02-24T09:20:04.618Z,67.50
2019-02-24T09:21:15.770Z,73.13
2019-02-24T09:22:26.916Z,73.13
2019-02-24T09:23:38.081Z,73.13
2019-02-24T09:24:48.729Z,73.13
2019-02-24T09:25:59.877Z,73.13
2019-02-24T09:27:11.035Z,73.13
2019-02-24T09:28:22.183Z,73.13
2019-02-24T09:29:33.340Z,73.13
2019-02-24T09:30:43.996Z,73.13
2019-02-24T09:31:55.142Z,73.13
2019-02-24T09:33:06.296Z,73.13
2019-02-24T09:34:17.439Z,73.13
2019-02-24T09:35:28.625Z,73.13
2019-02-24T09:36:40.776Z,73.13
2019-02-24T09:37:51.965Z,73.13
2019-02-24T09:39:03.120Z,73.13
2019-02-24T09:40:14.263Z,73.13
2019-02-24T09:41:25.414Z,73.13
2019-02-24T09:42:36.614Z,78.75
2019-02-24T09:43:47.269Z,78.75
2019-02-24T09:44:57.925Z,78.75
2019-02-24T09:46:09.081Z,78.75
2019-02-24T09:47:19.738Z,78.75
2019-02-24T09:48:30.402Z,78.75
2019-02-24T09:49:41.563Z,78.75
2019-02-24T09:50:52.230Z,78.75
2019-02-24T09:52:03.379Z,78.75
2019-02-24T09:53:14.627Z,78.75
2019-02-24T09:54:25.789Z,78.75
2019-02-24T09:55:36.942Z,78.75
2019-02-24T09:56:48.112Z,78.75
2019-02-24T09:57:59.274Z,78.75
2019-02-24T09:59:10.443Z,78.75
2019-02-24T10:00:22.097Z,78.75
2019-02-24T10:01:32.786Z,78.75
2019-02-24T10:02:43.949Z,84.38
2019-02-24T10:03:55.121Z,84.38
2019-02-24T10:05:06.287Z,84.38
2019-02-24T10:06:16.957Z,84.38
2019-02-24T10:07:28.139Z,84.38
2019-02-24T10:08:39.312Z,84.38
2019-02-24T10:09:50.616Z,84.38
2019-02-24T10:11:01.792Z,84.38
2019-02-24T10:12:12.951Z,84.38
2019-02-24T10:13:24.108Z,84.38
2019-02-24T10:14:35.276Z,84.38
2019-02-24T10:15:46.442Z,84.38
2019-02-24T10:16:57.615Z,84.38
2019-02-24T10:18:08.768Z,84.38
2019-02-24T10:19:19.949Z,90.00
2019-02-24T10:20:30.620Z,90.00
2019-02-24T10:21:41.289Z,90.00
2019-02-24T10:22:52.616Z,90.00
2019-02-24T10:24:03.294Z,90.00
2019-02-24T10:25:14.620Z,90.00
2019-02-24T10:26:25.791Z,90.00
2019-02-24T10:27:36.645Z,90.00
2019-02-24T10:28:47.830Z,90.00
2019-02-24T10:29:58.626Z,90.00
2019-02-24T10:31:09.798Z,90.00
2019-02-24T10:32:20.968Z,90.00
2019-02-24T10:33:32.173Z,90.00
2019-02-24T10:34:43.302Z,90.00
2019-02-24T10:35:54.617Z,95.63
2019-02-24T10:37:05.305Z,95.63
2019-02-24T10:38:16.609Z,95.63
2019-02-24T10:39:29.843Z,95.63
2019-02-24T10:40:38.956Z,95.63
2019-02-24T10:41:50.123Z,95.63
2019-02-24T10:43:01.298Z,95.63
2019-02-24T10:44:12.610Z,95.63
2019-02-24T10:45:23.793Z,95.63
2019-02-24T10:46:34.972Z,95.63
2019-02-24T10:47:45.657Z,95.63
2019-02-24T10:49:03.164Z,95.63
2019-02-24T10:50:08.001Z,95.63
2019-02-24T10:51:19.174Z,101.25
2019-02-24T10:52:30.793Z,101.25
2019-02-24T10:53:41.552Z,101.25
2019-02-24T10:54:52.240Z,101.25
2019-02-24T10:56:03.420Z,101.25
2019-02-24T10:57:14.621Z,101.25
2019-02-24T10:58:34.327Z,101.25
2019-02-24T10:59:37.005Z,101.25
2019-02-24T11:00:48.197Z,101.25
2019-02-24T11:01:59.374Z,101.25
2019-02-24T11:03:10.074Z,101.25
2019-02-24T11:04:21.255Z,101.25
2019-02-24T11:05:31.953Z,106.88
2019-02-24T11:06:42.653Z,106.88
2019-02-24T11:07:54.840Z,106.88
2019-02-24T11:09:06.025Z,106.88
2019-02-24T11:10:16.726Z,106.88
2019-02-24T11:11:27.908Z,106.88
2019-02-24T11:12:38.595Z,106.88
2019-02-24T11:13:49.845Z,112.50
2019-02-24T11:15:00.983Z,112.50
2019-02-24T11:16:12.164Z,112.50
2019-02-24T11:17:23.368Z,112.50
2019-02-24T11:18:34.616Z,112.50
2019-02-24T11:19:45.809Z,112.50
2019-02-24T11:20:57.009Z,112.50
2019-02-24T11:22:07.718Z,112.50
2019-02-24T11:23:18.915Z,118.13
2019-02-24T11:24:30.113Z,123.75
2019-02-24T11:25:41.316Z,123.75
2019-02-24T11:26:52.619Z,129.38
2019-02-24T11:28:03.328Z,129.38
2019-02-24T11:29:14.616Z,135.00
2019-02-24T11:30:25.826Z,135.00
2019-02-24T11:31:38.561Z,135.00
2019-02-24T11:32:48.243Z,140.63
2019-02-24T11:33:59.461Z,146.25
2019-02-24T11:35:10.716Z,151.88
2019-02-24T11:36:21.438Z,157.50
2019-02-24T11:37:32.648Z,157.50
2019-02-24T11:38:43.871Z,275.63
2019-02-24T11:39:55.093Z,900.00
2019-02-24T11:41:06.301Z,1558.13
2019-02-24T11:42:18.660Z,2120.63
2019-02-24T11:43:29.866Z,2300.63
2019-02-24T11:44:41.157Z,2368.13
2019-02-24T11:45:52.457Z,2581.88
2019-02-24T11:47:03.771Z,2576.25
2019-02-24T11:48:15.110Z,2565.00
2019-02-24T11:49:26.660Z,2615.63
2019-02-24T11:50:38.045Z,2514.38
2019-02-24T11:51:49.957Z,2300.63
2019-02-24T11:53:01.407Z,2328.75
2019-02-24T11:54:13.144Z,2379.38
2019-02-24T11:55:24.629Z,2379.38
2019-02-24T11:56:36.151Z,2401.88
2019-02-24T11:57:47.694Z,2514.38
2019-02-24T11:58:59.259Z,2643.75
2019-02-24T12:00:10.840Z,2745.00
2019-02-24T12:01:22.433Z,2773.13
2019-02-24T12:02:34.798Z,2761.88
2019-02-24T12:03:45.691Z,2801.25
2019-02-24T12:04:57.368Z,2840.63
2019-02-24T12:06:09.046Z,2767.50
2019-02-24T12:07:20.726Z,2784.38
2019-02-24T12:08:32.448Z,2801.25
2019-02-24T12:09:44.165Z,2840.63
2019-02-24T12:10:55.927Z,2851.88
2019-02-24T12:12:07.680Z,2874.38
2019-02-24T12:13:19.446Z,2986.88
2019-02-24T12:14:31.224Z,2947.50
2019-02-24T12:15:43.013Z,2705.63
2019-02-24T12:16:54.819Z,2463.75
2019-02-24T12:18:06.651Z,2362.50
2019-02-24T12:19:18.614Z,2362.50
2019-02-24T12:20:30.457Z,2379.38
2019-02-24T12:21:42.302Z,2469.38
2019-02-24T12:22:54.163Z,2621.25
2019-02-24T12:24:06.018Z,2700.00
2019-02-24T12:25:17.886Z,2683.13
2019-02-24T12:26:29.765Z,2581.88
2019-02-24T12:27:41.649Z,2514.38
2019-02-24T12:28:53.535Z,2520.00
2019-02-24T12:30:05.427Z,2480.63
2019-02-24T12:31:17.347Z,2418.75
2019-02-24T12:32:30.257Z,2452.50
2019-02-24T12:33:42.170Z,2565.00
2019-02-24T12:34:54.108Z,2598.75
2019-02-24T12:36:06.061Z,2576.25
2019-02-24T12:37:17.990Z,2497.50
2019-02-24T12:38:29.934Z,2469.38
2019-02-24T12:39:41.877Z,2475.00
2019-02-24T12:40:53.856Z,2475.00
2019-02-24T12:42:05.812Z,2435.63
2019-02-24T12:43:17.778Z,2491.88
2019-02-24T12:44:29.751Z,2435.63
2019-02-24T12:45:41.731Z,2396.25
2019-02-24T12:46:53.709Z,2452.50
2019-02-24T12:48:05.684Z,2475.00
2019-02-24T12:49:17.661Z,2418.75
2019-02-24T12:50:29.652Z,2323.13
2019-02-24T12:51:41.646Z,2340.00
2019-02-24T12:52:53.629Z,2407.50
2019-02-24T12:54:05.632Z,2446.88
2019-02-24T12:55:17.639Z,2413.13
2019-02-24T12:56:29.655Z,2413.13
2019-02-24T12:57:41.661Z,2396.25
2019-02-24T12:58:53.674Z,2475.00
2019-02-24T13:00:05.694Z,2435.63
2019-02-24T13:01:17.708Z,2565.00
2019-02-24T13:02:29.721Z,1800.00
2019-02-24T13:03:41.740Z,1141.88
2019-02-24T13:04:53.748Z,1608.75
2019-02-24T13:06:05.743Z,2171.25
2019-02-24T13:07:17.747Z,2227.50
2019-02-24T13:08:29.780Z,2283.75
2019-02-24T13:09:41.754Z,2216.25
2019-02-24T13:10:53.772Z,2154.38
2019-02-24T13:12:06.804Z,2081.25
2019-02-24T13:13:18.814Z,2058.75
2019-02-24T13:14:30.824Z,2148.75
2019-02-24T13:15:42.835Z,2120.63
2019-02-24T13:16:54.856Z,2070.00
2019-02-24T13:18:06.379Z,2025.00
2019-02-24T13:19:18.406Z,2030.63
2019-02-24T13:20:31.419Z,1687.50
2019-02-24T13:21:43.435Z,1406.25
2019-02-24T13:22:55.450Z,1811.25
2019-02-24T13:24:07.611Z,1867.50
2019-02-24T13:25:19.617Z,1198.13
2019-02-24T13:26:31.617Z,416.25
2019-02-24T13:27:43.619Z,241.88
2019-02-24T13:28:55.610Z,230.63
2019-02-24T13:30:07.617Z,225.00
2019-02-24T13:31:19.659Z,219.38
2019-02-24T13:32:31.624Z,213.75
2019-02-24T13:33:43.453Z,213.75
2019-02-24T13:34:55.255Z,213.75
2019-02-24T13:36:07.044Z,213.75
2019-02-24T13:37:18.811Z,213.75
2019-02-24T13:38:30.566Z,208.13
2019-02-24T13:39:42.285Z,213.75
2019-02-24T13:40:54.003Z,219.38
2019-02-24T13:42:06.690Z,219.38
2019-02-24T13:43:18.381Z,258.75
2019-02-24T13:44:30.040Z,258.75
2019-02-24T13:45:41.682Z,241.88
2019-02-24T13:46:53.332Z,309.38
2019-02-24T13:48:04.956Z,343.13
2019-02-24T13:49:16.592Z,320.63
2019-02-24T13:50:28.211Z,315.00
2019-02-24T13:51:39.822Z,736.88
2019-02-24T13:52:51.439Z,1366.88
2019-02-24T13:54:03.066Z,1411.88
2019-02-24T13:55:14.701Z,1378.13
2019-02-24T13:56:26.354Z,1378.13
2019-02-24T13:57:38.009Z,1338.75
2019-02-24T13:58:49.685Z,1344.38
2019-02-24T14:00:01.464Z,1344.38
2019-02-24T14:01:13.069Z,1338.75
2019-02-24T14:02:24.792Z,1305.00
2019-02-24T14:03:36.518Z,1327.50
2019-02-24T14:04:48.272Z,1310.63
2019-02-24T14:06:00.036Z,1316.25
2019-02-24T14:07:11.803Z,1282.50
2019-02-24T14:08:23.615Z,1299.38
2019-02-24T14:09:35.415Z,1310.63
2019-02-24T14:10:47.204Z,1288.13
2019-02-24T14:11:59.010Z,1265.63
2019-02-24T14:13:10.830Z,1254.38
2019-02-24T14:14:22.650Z,1198.13
2019-02-24T14:15:34.945Z,1215.00
2019-02-24T14:16:46.787Z,1209.38
2019-02-24T14:17:58.615Z,1175.63
2019-02-24T14:19:11.460Z,1170.00
2019-02-24T14:20:23.299Z,1136.25
2019-02-24T14:21:35.150Z,1108.13
2019-02-24T14:22:46.996Z,1080.00
2019-02-24T14:23:58.848Z,1074.38
2019-02-24T14:25:10.712Z,1091.25
2019-02-24T14:26:22.079Z,1074.38
2019-02-24T14:27:33.942Z,1051.88
2019-02-24T14:28:45.803Z,1051.88
2019-02-24T14:29:57.693Z,1040.63
2019-02-24T14:31:09.545Z,1023.75
2019-02-24T14:32:21.408Z,1018.13
2019-02-24T14:33:33.268Z,984.38
2019-02-24T14:34:45.122Z,961.88
2019-02-24T14:35:57.002Z,967.50
2019-02-24T14:37:08.870Z,950.63
2019-02-24T14:38:20.744Z,911.25
2019-02-24T14:39:32.614Z,900.00
2019-02-24T14:40:44.526Z,888.75
2019-02-24T14:41:56.386Z,871.88
2019-02-24T14:43:08.235Z,855.00
2019-02-24T14:44:20.100Z,849.38
2019-02-24T14:45:31.969Z,843.75
2019-02-24T14:46:43.827Z,821.25
2019-02-24T14:47:55.702Z,804.38
2019-02-24T14:49:07.612Z,787.50
2019-02-24T14:50:19.629Z,770.63
2019-02-24T14:51:31.624Z,765.00
2019-02-24T14:52:43.625Z,759.38
2019-02-24T14:53:55.619Z,753.75
2019-02-24T14:55:07.441Z,742.50
2019-02-24T14:56:19.271Z,736.88
2019-02-24T14:57:31.101Z,708.75
2019-02-24T14:58:42.922Z,691.88
2019-02-24T14:59:54.735Z,680.63
2019-02-24T15:01:06.568Z,675.00
2019-02-24T15:02:18.385Z,675.00
2019-02-24T15:03:30.206Z,669.38
2019-02-24T15:04:42.014Z,646.88
2019-02-24T15:05:53.823Z,630.00
2019-02-24T15:07:05.626Z,607.50
2019-02-24T15:08:17.422Z,590.63
2019-02-24T15:09:29.209Z,573.75
2019-02-24T15:10:41.012Z,568.13
2019-02-24T15:11:52.811Z,556.88
2019-02-24T15:13:04.597Z,551.25
2019-02-24T15:14:16.379Z,540.00
2019-02-24T15:15:32.869Z,528.75
2019-02-24T15:16:39.978Z,478.13
2019-02-24T15:17:51.752Z,360.00